Strona główna
METAR-TAF:

METAR-TAF

Lotnisko :

Port lotniczy Kabul

Kabul, Afganistan

Szerokość geograficzna: 34-38N, Długość geograficzna: 069-12E, wysokość: 1789 m

Aktualna obserwacja pogody

Raport powstał 18 minut temu, godzina 17:50 UTC
Wiatr 4 kt od północno-północny zachód
Temperatura -2°C
Wilgotność 54%
Ciśnienie 1022 hPa
Widzialność: 4000 m
dym

METAR: OAKB 231750Z 34004KT 4000 FU NSC M02/M10 Q1022 NOSIG RMK A3020 GRN GRN

czas: 22:38 (18:08 UTC)

Prognoza

Raport powstał 1 godzina i 3 minut temu, godzina 17:05 UTC
Prognoza ważna od 23 godzina 18 UTC do 24 godzina 18 UTC
Wiatr 2 kt z kierunków zmiennych
Widzialność: 6000 m
Przejściowo
od 23 godzina 18 UTC do 23 godzina 24 UTC
Widzialność: 4000 m
dym
Stopniowe zmiany
od 24 godzina 04 UTC do 24 godzina 06 UTC
Widzialność 10 km lub więcej
Brak chmur poniżej 1500 m i brak chmur cumulonimbus
Stopniowe zmiany
od 24 godzina 14 UTC do 24 godzina 16 UTC
Widzialność: 4000 m
dym

TAF: OAKB 231705Z 2318/2418 VRB02KT 6000 NSC TEMPO 2318/2324 4000 FU BECMG 2404/2406 CAVOK BECMG 2414/2416 4000 FU

Obserwacja i prognoza pogody dla ponad 4000 lotnisk (raport METAR i TAF).

Dostępne stacje oznaczono żółtymi i czerwonymi punktami na mapie.

Najedź kursorem aby zobaczyć nazwę stacji.

Kliknij aby zobaczyć obserwacje i prognozy pogody.

Aby zmienić mapę: kliknij na zielony przycisk z czarnym krzyżykiem, aby powiększyć; na zielony przycisk z myślnikiem, aby pomniejszyć; na zielone strzałki, aby przejść do map sąsiednich.


METAR-TAF: